Time;durP1;ratioP1;P1;durP2;ratioP2;P2;SDS_P1;SDS_P2;PMS_P1;PMS_P2;Temp;Humidity;BMP_temperature;BMP_pressure;BME280_temperature;BME280_humidity;BME280_pressure;Samples;Min_cycle;Max_cycle;Signal;HPM_P1;HPM_P2
2022/09/15 00:00:57;;;;;;;;;;;12.00;99.90;;;;;;5069523;28;20040;-67
2022/09/15 00:03:23;;;;;;;115.97;7.80;;;12.00;99.90;;;;;;5075448;28;19927;-66
2022/09/15 00:05:50;;;;;;;;;;;12.00;99.90;;;;;;5077333;28;20047;-66
2022/09/15 00:08:16;;;;;;;111.85;7.55;;;12.00;99.90;;;;;;5075550;28;19928;-66
2022/09/15 00:10:52;;;;;;;;;;;11.90;99.90;;;;;;5080207;28;20029;-66
2022/09/15 00:13:20;;;;;;;36.58;5.18;;;11.90;99.90;;;;;;5071945;28;19978;-67
2022/09/15 00:15:46;;;;;;;26.50;6.20;;;11.90;99.90;;;;;;5073075;28;20115;-66
2022/09/15 00:18:12;;;;;;;41.47;5.85;;;11.80;99.90;;;;;;5065530;28;20029;-66
2022/09/15 00:20:41;;;;;;;;;;;11.70;99.90;;;;;;5067677;28;20086;-67
2022/09/15 00:23:08;;;;;;;6.03;4.70;;;11.70;99.90;;;;;;5054578;28;20403;-67
2022/09/15 00:25:33;;;;;;;13.52;4.88;;;11.70;99.90;;;;;;5065548;28;20439;-67
2022/09/15 00:27:59;;;;;;;;;;;11.70;99.90;;;;;;5064764;28;20036;-67
2022/09/15 00:30:24;;;;;;;81.80;6.55;;;11.50;99.90;;;;;;5063383;28;19924;-67
2022/09/15 00:32:50;;;;;;;;;;;11.60;99.90;;;;;;5064277;28;20198;-67
2022/09/15 00:35:16;;;;;;;7.88;4.97;;;11.60;99.90;;;;;;5061869;28;19916;-68
2022/09/15 00:37:42;;;;;;;16.23;5.15;;;11.60;99.90;;;;;;5066229;28;20143;-69
2022/09/15 00:40:08;;;;;;;;;;;11.60;99.90;;;;;;5061952;28;20115;-70
2022/09/15 00:42:33;;;;;;;7.07;4.72;;;11.60;99.90;;;;;;5067271;28;19920;-69
2022/09/15 00:45:00;;;;;;;;;;;11.60;99.90;;;;;;5060240;28;20119;-67
2022/09/15 00:47:35;;;;;;;7.57;4.57;;;11.70;99.90;;;;;;5067447;28;19924;-66
2022/09/15 00:50:07;;;;;;;7.18;5.03;;;11.70;99.90;;;;;;5059214;28;20187;-70
2022/09/15 00:52:44;;;;;;;7.50;4.57;;;11.70;99.90;;;;;;5068344;28;20044;-67
2022/09/15 00:55:34;;;;;;;6.82;4.38;;;11.70;99.90;;;;;;5057902;28;20162;-68
2022/09/15 00:58:10;;;;;;;8.45;4.55;;;11.70;99.90;;;;;;5063544;28;20033;-68
2022/09/15 01:00:36;;;;;;;7.50;4.95;;;11.70;99.90;;;;;;5068061;28;20152;-67
2022/09/15 01:03:02;;;;;;;10.63;5.75;;;11.70;99.90;;;;;;5062232;28;20048;-67
2022/09/15 01:05:52;;;;;;;10.18;5.30;;;11.80;99.90;;;;;;5063884;28;20408;-68
2022/09/15 01:08:31;;;;;;;12.98;5.88;;;11.80;99.90;;;;;;5063939;28;20043;-68
2022/09/15 01:10:58;;;;;;;10.98;5.25;;;11.90;99.90;;;;;;5068627;28;20119;-68
2022/09/15 01:13:24;;;;;;;13.38;5.93;;;11.80;99.90;;;;;;5061114;28;20059;-67
2022/09/15 01:16:13;;;;;;;;;;;11.90;99.90;;;;;;5067642;28;20044;-67
2022/09/15 01:19:00;;;;;;;13.05;5.63;;;11.90;99.90;;;;;;5067378;28;19924;-67
2022/09/15 01:22:04;;;;;;;10.25;6.47;;;12.00;99.90;;;;;;5063598;28;20087;-67
2022/09/15 01:24:51;;;;;;;10.15;6.38;;;12.00;99.90;;;;;;5045832;28;20041;-68
2022/09/15 01:27:50;;;;;;;9.65;5.65;;;12.10;99.90;;;;;;5066105;28;20083;-68
2022/09/15 01:30:20;;;;;;;10.32;5.95;;;12.00;99.90;;;;;;5057412;28;20032;-67
2022/09/15 01:33:08;;;;;;;14.20;6.50;;;12.10;99.90;;;;;;5065964;28;20824;-67
2022/09/15 01:35:49;;;;;;;9.80;6.03;;;12.10;99.90;;;;;;5065491;28;20044;-67
2022/09/15 01:38:31;;;;;;;15.98;6.68;;;12.10;99.90;;;;;;5065781;28;20083;-67
2022/09/15 01:41:07;;;;;;;14.02;8.13;;;12.10;99.90;;;;;;5059598;28;20794;-66
2022/09/15 01:43:41;;;;;;;14.15;6.78;;;12.20;99.90;;;;;;5063869;28;20044;-66
2022/09/15 01:46:08;;;;;;;16.67;7.68;;;12.20;99.90;;;;;;5061058;28;20059;-66
2022/09/15 01:48:36;;;;;;;16.13;7.47;;;12.20;99.90;;;;;;5048492;28;20036;-66
2022/09/15 01:51:04;;;;;;;17.45;9.55;;;12.10;99.90;;;;;;5061010;28;20075;-66
2022/09/15 01:53:30;;;;;;;19.00;8.88;;;12.10;99.90;;;;;;5064966;28;20064;-66
2022/09/15 01:55:59;;;;;;;;;;;12.00;99.90;;;;;;5068234;28;20523;-66
2022/09/15 01:58:24;;;;;;;11.63;6.95;;;12.00;99.90;;;;;;5065547;28;20332;-66
2022/09/15 02:01:03;;;;;;;;;;;12.10;99.90;;;;;;5067392;28;20045;-66
2022/09/15 02:03:48;;;;;;;13.45;7.57;;;12.10;99.90;;;;;;5064571;28;19916;-67
2022/09/15 02:06:48;;;;;;;11.35;7.43;;;12.10;99.90;;;;;;5061179;28;20119;-66
2022/09/15 02:09:21;;;;;;;14.10;8.32;;;12.10;99.90;;;;;;5054100;28;20444;-66
2022/09/15 02:12:01;;;;;;;15.55;8.73;;;12.10;99.90;;;;;;5065447;28;20040;-66
2022/09/15 02:15:07;;;;;;;20.77;8.32;;;12.10;99.90;;;;;;5057852;28;20060;-66
2022/09/15 02:17:50;;;;;;;14.38;7.78;;;12.10;99.90;;;;;;5068287;28;20044;-66
2022/09/15 02:20:47;;;;;;;17.95;8.65;;;12.00;99.90;;;;;;5056407;28;20035;-67
2022/09/15 02:23:27;;;;;;;15.80;8.18;;;12.00;99.90;;;;;;5064697;28;20123;-66
2022/09/15 02:26:03;;;;;;;15.57;8.68;;;12.00;99.90;;;;;;5060451;28;20044;-66
2022/09/15 02:28:32;;;;;;;18.25;8.52;;;12.00;99.90;;;;;;5064975;28;20652;-66
2022/09/15 02:30:59;;;;;;;15.18;9.32;;;12.00;99.90;;;;;;5054982;28;20944;-66
2022/09/15 02:33:34;;;;;;;19.00;9.38;;;12.00;99.90;;;;;;5058899;28;20123;-67
2022/09/15 02:36:01;;;;;;;13.73;8.00;;;12.00;99.90;;;;;;5060056;28;20051;-67
2022/09/15 02:38:32;;;;;;;26.75;8.88;;;12.10;99.90;;;;;;5065844;28;20551;-67
2022/09/15 02:40:58;;;;;;;12.73;7.88;;;12.00;99.90;;;;;;5062279;28;20109;-67
2022/09/15 02:43:23;;;;;;;;;;;12.00;99.90;;;;;;5065705;28;20520;-67
2022/09/15 02:45:49;;;;;;;15.27;8.13;;;12.00;99.90;;;;;;5060217;28;19971;-68
2022/09/15 02:48:15;;;;;;;;;;;12.00;99.90;;;;;;5066026;28;20040;-67
2022/09/15 02:50:40;;;;;;;18.52;10.57;;;12.00;99.90;;;;;;5060565;28;19967;-67
2022/09/15 02:53:06;;;;;;;;;;;12.00;99.90;;;;;;5067137;28;20417;-66
2022/09/15 02:55:32;;;;;;;17.73;9.25;;;12.00;99.90;;;;;;5059755;28;20002;-66
2022/09/15 02:57:58;;;;;;;22.35;11.13;;;12.10;99.90;;;;;;5065651;28;20713;-66
2022/09/15 03:00:24;;;;;;;;;;;12.00;99.90;;;;;;5061154;28;20072;-66
2022/09/15 03:02:52;;;;;;;24.63;11.20;;;12.00;99.90;;;;;;5065885;28;19916;-66
2022/09/15 03:05:20;;;;;;;27.27;13.10;;;12.00;99.90;;;;;;5058722;28;20321;-66
2022/09/15 03:07:46;;;;;;;23.73;13.93;;;12.00;99.90;;;;;;5071652;28;20047;-66
2022/09/15 03:10:12;;;;;;;;;;;12.00;99.90;;;;;;5059050;28;20037;-66
2022/09/15 03:12:45;;;;;;;20.17;13.18;;;12.00;99.90;;;;;;5059283;28;19916;-66
2022/09/15 03:15:13;;;;;;;29.20;15.93;;;12.00;99.90;;;;;;5057985;28;20083;-66
2022/09/15 03:17:41;;;;;;;26.27;14.82;;;12.10;99.90;;;;;;5067306;28;20436;-69
2022/09/15 03:20:08;;;;;;;22.92;14.98;;;12.10;99.90;;;;;;5058808;28;20047;-68
2022/09/15 03:22:34;;;;;;;32.85;15.05;;;12.10;99.90;;;;;;5068663;28;20036;-68
2022/09/15 03:25:00;;;;;;;;;;;12.00;99.90;;;;;;5056130;28;20044;-68
2022/09/15 03:27:26;;;;;;;25.25;13.98;;;12.00;99.90;;;;;;5068040;28;19969;-68
2022/09/15 03:29:52;;;;;;;;;;;12.00;99.90;;;;;;5057213;28;20084;-69
2022/09/15 03:32:18;;;;;;;22.45;13.45;;;12.00;99.90;;;;;;5065292;28;20406;-68
2022/09/15 03:34:43;;;;;;;;;;;12.00;99.90;;;;;;5058084;28;20600;-69
2022/09/15 03:37:09;;;;;;;27.38;13.65;;;12.00;99.90;;;;;;5066698;28;19996;-68
2022/09/15 03:39:34;;;;;;;;;;;12.00;99.90;;;;;;5057453;28;20041;-67
2022/09/15 03:42:00;;;;;;;26.52;13.63;;;12.00;99.90;;;;;;5058399;28;19928;-69
2022/09/15 03:44:25;;;;;;;;;;;11.90;99.90;;;;;;5057974;28;20176;-69
2022/09/15 03:46:51;;;;;;;20.08;11.73;;;12.00;99.90;;;;;;5065334;28;19947;-68
2022/09/15 03:49:17;;;;;;;;;;;11.90;99.90;;;;;;5059955;28;20402;-69
2022/09/15 03:51:43;;;;;;;25.35;12.02;;;12.00;99.90;;;;;;5064505;28;19923;-69
2022/09/15 03:54:09;;;;;;;26.08;12.73;;;12.00;99.90;;;;;;5063155;28;20040;-66
2022/09/15 03:56:35;;;;;;;21.10;12.50;;;11.90;99.90;;;;;;5067726;28;20141;-66
2022/09/15 03:59:01;;;;;;;;;;;11.90;99.90;;;;;;5065849;28;20504;-66
2022/09/15 04:01:28;;;;;;;25.63;12.05;;;11.80;99.90;;;;;;5061634;28;19920;-66
2022/09/15 04:03:54;;;;;;;27.67;12.18;;;11.90;99.90;;;;;;5064818;28;20116;-66
2022/09/15 04:06:20;;;;;;;;;;;11.80;99.90;;;;;;5059513;28;20664;-66
2022/09/15 04:08:47;;;;;;;22.37;11.83;;;11.80;99.90;;;;;;5072790;28;20461;-67
2022/09/15 04:11:13;;;;;;;27.58;12.48;;;11.90;99.90;;;;;;5061738;28;20044;-66
2022/09/15 04:13:40;;;;;;;24.73;11.95;;;11.90;99.90;;;;;;5052400;28;20131;-67
2022/09/15 04:16:09;;;;;;;20.90;11.52;;;11.90;99.90;;;;;;5062518;28;20051;-67
2022/09/15 04:18:35;;;;;;;29.05;12.15;;;11.80;99.90;;;;;;5067214;28;20063;-67
2022/09/15 04:21:02;;;;;;;;;;;11.80;99.90;;;;;;5064562;28;20495;-66
2022/09/15 04:23:28;;;;;;;26.13;11.38;;;11.70;99.90;;;;;;5063059;28;20409;-67
2022/09/15 04:26:01;;;;;;;;;;;11.70;99.90;;;;;;5063114;28;20039;-66
2022/09/15 04:28:31;;;;;;;26.55;10.80;;;11.60;99.90;;;;;;5067140;28;20400;-66
2022/09/15 04:31:08;;;;;;;28.20;12.38;;;11.60;99.90;;;;;;5061905;28;20028;-67
2022/09/15 04:33:34;;;;;;;22.30;11.18;;;11.60;99.90;;;;;;5062392;28;20040;-68
2022/09/15 04:36:15;;;;;;;22.85;11.70;;;11.50;99.90;;;;;;5062992;28;20410;-69
2022/09/15 04:38:41;;;;;;;25.00;11.60;;;11.60;99.90;;;;;;5063726;28;20070;-68
2022/09/15 04:41:07;;;;;;;23.42;11.85;;;11.60;99.90;;;;;;5062471;28;20048;-69
2022/09/15 04:43:33;;;;;;;22.15;11.10;;;11.50;99.90;;;;;;5064380;28;20044;-68
2022/09/15 04:45:59;;;;;;;;;;;11.50;99.90;;;;;;5073240;28;20040;-68
2022/09/15 04:48:25;;;;;;;24.25;11.60;;;11.50;99.90;;;;;;5076301;28;19945;-69
2022/09/15 04:50:51;;;;;;;21.23;11.15;;;11.60;99.90;;;;;;5073325;28;20041;-69
2022/09/15 04:53:17;;;;;;;25.10;10.63;;;11.60;99.90;;;;;;5083239;28;20432;-69
2022/09/15 04:55:43;;;;;;;;;;;11.60;99.90;;;;;;5061305;28;20209;-67
2022/09/15 04:58:09;;;;;;;26.13;11.50;;;11.60;99.90;;;;;;5087258;28;20391;-67
2022/09/15 05:00:41;;;;;;;;;;;11.60;99.90;;;;;;5072937;28;20473;-67
2022/09/15 05:03:11;;;;;;;21.42;10.93;;;11.60;99.90;;;;;;5058848;28;19920;-67
2022/09/15 05:05:38;;;;;;;28.25;10.55;;;11.60;99.90;;;;;;5061905;28;20032;-67
2022/09/15 05:08:03;;;;;;;21.88;11.75;;;11.70;99.90;;;;;;5060357;28;20036;-67
2022/09/15 05:10:29;;;;;;;;;;;11.70;99.90;;;;;;5078091;28;20035;-67
2022/09/15 05:12:55;;;;;;;24.52;11.68;;;11.70;99.90;;;;;;5071318;28;19974;-66
2022/09/15 05:15:20;;;;;;;29.05;11.77;;;11.70;99.90;;;;;;5073015;28;20032;-67
2022/09/15 05:17:46;;;;;;;;;;;11.70;99.90;;;;;;5078582;28;20052;-66
2022/09/15 05:20:12;;;;;;;18.48;9.73;;;11.70;99.90;;;;;;5081985;28;19920;-67
2022/09/15 05:22:37;;;;;;;;;;;11.70;99.90;;;;;;5076809;28;20621;-69
2022/09/15 05:25:04;;;;;;;23.67;11.02;;;11.70;99.90;;;;;;5082873;28;19916;-70
2022/09/15 05:27:31;;;;;;;20.65;10.60;;;11.70;99.90;;;;;;5071519;28;20055;-70
2022/09/15 05:29:57;;;;;;;24.00;10.30;;;11.70;99.90;;;;;;5080454;28;20048;-72
2022/09/15 05:32:22;;;;;;;;;;;11.70;99.90;;;;;;5080288;28;20085;-69
2022/09/15 05:34:49;;;;;;;23.33;9.20;;;11.70;99.90;;;;;;5082762;28;20029;-68
2022/09/15 05:37:14;;;;;;;21.45;9.30;;;11.70;99.90;;;;;;5064567;28;20054;-67
2022/09/15 05:39:40;;;;;;;;;;;11.70;99.90;;;;;;5074130;28;20032;-69
2022/09/15 05:42:05;;;;;;;17.45;8.10;;;11.70;99.90;;;;;;5083690;28;20456;-68
2022/09/15 05:44:31;;;;;;;;;;;11.70;99.90;;;;;;5068071;28;20046;-69
2022/09/15 05:46:56;;;;;;;15.98;8.00;;;11.80;99.90;;;;;;5068286;28;20011;-72
2022/09/15 05:49:22;;;;;;;14.35;8.15;;;11.80;99.90;;;;;;5051322;28;20044;-69
2022/09/15 05:51:48;;;;;;;16.10;8.75;;;11.80;99.90;;;;;;5066913;28;20064;-70
2022/09/15 05:54:13;;;;;;;;;;;11.80;99.90;;;;;;5057700;28;20081;-67
2022/09/15 05:56:39;;;;;;;18.48;8.90;;;11.80;99.90;;;;;;5077407;28;20053;-70
2022/09/15 05:59:04;;;;;;;;;;;11.80;99.90;;;;;;5081294;28;20051;-68
2022/09/15 06:01:30;;;;;;;18.50;8.82;;;11.80;99.90;;;;;;5068751;28;19916;-69
2022/09/15 06:03:57;;;;;;;19.80;9.63;;;11.80;99.90;;;;;;5065785;28;20170;-68
2022/09/15 06:06:24;;;;;;;19.90;9.35;;;11.80;99.90;;;;;;5061994;28;20041;-68
2022/09/15 06:08:54;;;;;;;15.98;8.45;;;11.80;99.90;;;;;;5062629;28;20040;-67
2022/09/15 06:11:22;;;;;;;17.90;9.07;;;11.80;99.90;;;;;;5070101;28;20032;-71
2022/09/15 06:13:48;;;;;;;17.25;9.35;;;11.80;99.90;;;;;;5070679;28;20171;-70
2022/09/15 06:16:23;;;;;;;15.80;9.32;;;11.80;99.90;;;;;;5083103;28;20043;-69
2022/09/15 06:18:51;;;;;;;17.48;9.80;;;11.80;99.90;;;;;;5066272;28;20037;-67
2022/09/15 06:21:22;;;;;;;16.02;8.85;;;11.80;99.90;;;;;;5071171;28;20119;-68
2022/09/15 06:23:56;;;;;;;18.63;8.82;;;11.90;99.90;;;;;;5076942;28;20475;-68
2022/09/15 06:26:23;;;;;;;20.45;10.07;;;11.90;99.90;;;;;;5070289;28;20047;-71
2022/09/15 06:28:54;;;;;;;15.63;9.07;;;11.90;99.90;;;;;;5072003;28;20053;-68
2022/09/15 06:31:20;;;;;;;17.33;8.98;;;11.90;99.90;;;;;;5070723;28;20035;-68
2022/09/15 06:33:50;;;;;;;14.20;8.52;;;12.00;99.90;;;;;;5077631;28;20098;-67
2022/09/15 06:36:16;;;;;;;18.88;9.70;;;11.90;99.90;;;;;;5070798;28;20041;-67
2022/09/15 06:38:43;;;;;;;16.75;8.27;;;12.00;99.90;;;;;;5056678;28;20044;-68
2022/09/15 06:41:10;;;;;;;17.02;8.90;;;12.00;99.90;;;;;;5071760;28;20547;-68
2022/09/15 06:43:36;;;;;;;13.77;8.60;;;12.00;99.90;;;;;;5061516;28;20037;-67
2022/09/15 06:46:14;;;;;;;14.25;8.50;;;12.10;99.90;;;;;;5073629;28;20082;-68
2022/09/15 06:48:41;;;;;;;14.88;8.25;;;12.10;99.90;;;;;;5071514;28;20032;-68
2022/09/15 06:51:10;;;;;;;20.17;10.10;;;12.10;99.90;;;;;;5062341;28;20571;-69
2022/09/15 06:53:37;;;;;;;22.10;11.05;;;12.20;99.90;;;;;;5057477;28;20033;-69
2022/09/15 06:56:05;;;;;;;21.33;10.45;;;12.10;99.90;;;;;;5063912;28;20051;-70
2022/09/15 06:58:34;;;;;;;18.42;10.32;;;12.10;99.90;;;;;;5065667;28;20040;-70
2022/09/15 07:01:04;;;;;;;14.98;9.20;;;12.20;99.90;;;;;;5055775;28;20764;-68
2022/09/15 07:03:30;;;;;;;19.35;10.57;;;12.20;99.90;;;;;;5054460;28;20426;-69
2022/09/15 07:05:56;;;;;;;;;;;12.20;99.90;;;;;;5063662;28;20048;-69
2022/09/15 07:08:21;;;;;;;22.65;13.65;;;12.20;99.90;;;;;;5054260;28;19916;-69
2022/09/15 07:10:47;;;;;;;;;;;12.10;99.90;;;;;;5064254;28;20056;-67
2022/09/15 07:13:13;;;;;;;17.42;11.70;;;12.10;99.90;;;;;;5054243;28;19920;-71
2022/09/15 07:15:38;;;;;;;;;;;12.20;99.90;;;;;;5059764;28;20407;-69
2022/09/15 07:18:05;;;;;;;19.33;11.73;;;12.20;99.90;;;;;;5059871;28;20299;-67
2022/09/15 07:20:31;;;;;;;24.08;14.52;;;12.30;99.90;;;;;;5062658;28;20123;-68
2022/09/15 07:22:57;;;;;;;30.65;15.25;;;12.20;99.90;;;;;;5063217;28;20037;-69
2022/09/15 07:25:22;;;;;;;;;;;12.20;99.90;;;;;;5058502;28;20045;-68
2022/09/15 07:27:48;;;;;;;28.92;15.48;;;12.10;99.90;;;;;;5067132;28;19924;-68
2022/09/15 07:30:13;;;;;;;;;;;12.20;99.90;;;;;;5057559;28;20435;-68
2022/09/15 07:32:39;;;;;;;22.35;14.23;;;12.10;99.90;;;;;;5056537;28;19920;-68
2022/09/15 07:35:06;;;;;;;;;;;12.10;99.90;;;;;;5057580;28;20039;-68
2022/09/15 07:37:32;;;;;;;29.98;14.75;;;12.20;99.90;;;;;;5072280;28;19924;-68
2022/09/15 07:39:58;;;;;;;24.45;15.45;;;12.20;99.90;;;;;;5064126;28;20059;-68
2022/09/15 07:42:24;;;;;;;22.23;14.95;;;12.20;99.90;;;;;;5063701;28;20050;-68
2022/09/15 07:44:50;;;;;;;24.48;13.57;;;12.20;99.90;;;;;;5055768;28;20048;-68
2022/09/15 07:47:16;;;;;;;;;;;12.20;99.90;;;;;;5070941;28;20040;-68
2022/09/15 07:49:42;;;;;;;21.20;12.25;;;12.10;99.90;;;;;;5065706;28;19969;-68
2022/09/15 07:52:08;;;;;;;24.55;14.65;;;12.10;99.90;;;;;;5084746;28;20492;-68
2022/09/15 07:54:34;;;;;;;24.90;13.85;;;12.10;99.90;;;;;;5074281;28;20044;-69
2022/09/15 07:57:00;;;;;;;;;;;12.10;99.90;;;;;;5078415;28;20407;-68
2022/09/15 07:59:25;;;;;;;25.27;13.77;;;12.10;99.90;;;;;;5077236;28;20007;-69
2022/09/15 08:01:51;;;;;;;;;;;12.20;99.90;;;;;;5065060;28;20072;-69
2022/09/15 08:04:17;;;;;;;18.80;11.00;;;12.20;99.90;;;;;;5067187;28;20411;-70
2022/09/15 08:06:42;;;;;;;;;;;12.30;99.90;;;;;;5069312;28;20120;-69
2022/09/15 08:09:13;;;;;;;20.48;10.60;;;12.20;99.90;;;;;;5063743;28;19931;-69
2022/09/15 08:11:39;;;;;;;22.35;9.40;;;12.30;99.90;;;;;;5060978;28;20048;-70
2022/09/15 08:14:05;;;;;;;18.10;8.40;;;12.30;99.90;;;;;;5063436;28;20033;-69
2022/09/15 08:16:30;;;;;;;;;;;12.30;99.90;;;;;;5068833;28;20507;-70
2022/09/15 08:18:56;;;;;;;13.18;6.38;;;12.40;99.90;;;;;;5068533;28;19990;-69
2022/09/15 08:21:22;;;;;;;;;;;12.30;99.90;;;;;;5073848;28;20051;-70
2022/09/15 08:23:54;;;;;;;12.45;7.00;;;12.40;99.90;;;;;;5061283;28;19917;-69
2022/09/15 08:26:21;;;;;;;17.38;6.55;;;12.50;99.90;;;;;;5070782;28;20108;-69
2022/09/15 08:28:47;;;;;;;12.20;6.60;;;12.60;99.90;;;;;;5065302;28;20040;-70
2022/09/15 08:31:13;;;;;;;10.73;5.90;;;12.60;99.90;;;;;;5062937;28;20467;-70
2022/09/15 08:33:39;;;;;;;11.38;5.40;;;12.60;99.90;;;;;;5066132;28;20125;-69
2022/09/15 08:36:07;;;;;;;;;;;12.60;99.90;;;;;;5063191;28;20395;-68
2022/09/15 08:38:33;;;;;;;13.82;5.68;;;12.60;99.90;;;;;;5066561;28;19920;-67
2022/09/15 08:41:04;;;;;;;12.65;5.20;;;12.60;99.90;;;;;;5058864;28;20040;-68
2022/09/15 08:43:36;;;;;;;12.23;4.82;;;12.60;99.90;;;;;;5061948;28;20044;-69
2022/09/15 08:46:06;;;;;;;9.65;4.30;;;12.60;99.90;;;;;;5062255;28;20601;-68
2022/09/15 08:48:54;;;;;;;11.52;4.55;;;12.70;99.90;;;;;;5058194;28;20048;-69
2022/09/15 08:51:27;;;;;;;11.75;4.55;;;12.70;99.90;;;;;;5070117;28;20036;-68
2022/09/15 08:53:59;;;;;;;12.20;4.07;;;12.80;99.90;;;;;;5050521;28;20075;-67
2022/09/15 08:56:27;;;;;;;11.77;4.22;;;12.80;99.90;;;;;;5069243;28;20055;-70
2022/09/15 08:58:53;;;;;;;11.18;4.30;;;12.70;99.90;;;;;;5061012;28;20555;-70
2022/09/15 09:01:19;;;;;;;;;;;12.80;99.90;;;;;;5069301;28;20036;-70
2022/09/15 09:04:16;;;;;;;11.45;3.67;;;12.80;99.90;;;;;;5065056;28;19963;-68
2022/09/15 09:06:42;;;;;;;;;;;12.70;99.90;;;;;;5059583;28;20128;-70
2022/09/15 09:09:22;;;;;;;11.73;2.25;;;12.70;99.90;;;;;;5071023;28;20370;-70
2022/09/15 09:12:09;;;;;;;10.77;2.40;;;12.70;99.90;;;;;;5061349;28;20119;-68
2022/09/15 09:14:49;;;;;;;7.43;2.28;;;12.70;99.90;;;;;;5057461;28;20040;-69
2022/09/15 09:17:52;;;;;;;12.35;2.15;;;12.80;99.90;;;;;;5062573;28;20512;-69
2022/09/15 09:20:32;;;;;;;10.40;1.98;;;12.80;99.90;;;;;;5062259;28;20036;-68
2022/09/15 09:23:01;;;;;;;6.05;1.83;;;12.80;99.90;;;;;;5059383;28;20049;-68
2022/09/15 09:25:26;;;;;;;7.63;1.88;;;12.90;99.90;;;;;;5061069;28;20047;-68
2022/09/15 09:27:52;;;;;;;;;;;12.90;99.90;;;;;;5063618;28;20040;-69
2022/09/15 09:30:23;;;;;;;14.85;2.15;;;13.00;99.90;;;;;;5061013;28;19920;-69
2022/09/15 09:32:53;;;;;;;8.65;2.40;;;13.00;99.90;;;;;;5066184;28;20048;-69
2022/09/15 09:35:35;;;;;;;12.27;1.90;;;13.10;99.90;;;;;;5061787;28;20036;-68
2022/09/15 09:38:01;;;;;;;5.47;1.60;;;13.20;99.90;;;;;;5067085;28;20036;-69
2022/09/15 09:40:29;;;;;;;6.07;1.38;;;13.20;99.90;;;;;;5061155;28;20088;-69
2022/09/15 09:42:55;;;;;;;10.52;2.50;;;13.30;99.90;;;;;;5063907;28;20105;-68
2022/09/15 09:45:21;;;;;;;;;;;13.40;99.90;;;;;;5061070;28;20036;-68
2022/09/15 09:47:47;;;;;;;4.80;1.10;;;13.30;99.90;;;;;;5066556;28;19920;-69
2022/09/15 09:50:42;;;;;;;;;;;13.40;99.90;;;;;;5060418;28;20044;-70
2022/09/15 09:53:22;;;;;;;6.55;1.10;;;13.50;99.90;;;;;;5055043;28;19960;-69
2022/09/15 09:55:47;;;;;;;5.32;1.40;;;13.60;99.90;;;;;;5061456;28;20039;-69
2022/09/15 09:58:21;;;;;;;;;;;13.60;99.90;;;;;;5064150;28;20032;-69
2022/09/15 10:00:47;;;;;;;6.00;1.25;;;13.50;99.90;;;;;;5065639;28;20447;-69
2022/09/15 10:03:24;;;;;;;5.25;1.10;;;13.60;99.90;;;;;;5065931;28;20848;-68
2022/09/15 10:06:05;;;;;;;4.25;1.10;;;13.80;99.90;;;;;;5071691;28;20050;-68
2022/09/15 10:08:31;;;;;;;3.25;1.10;;;13.90;99.90;;;;;;5074169;28;20125;-66
2022/09/15 10:11:07;;;;;;;6.07;0.90;;;13.90;99.90;;;;;;5082165;28;20055;-64
2022/09/15 10:13:49;;;;;;;3.67;1.13;;;13.90;99.90;;;;;;5086017;28;20499;-64
2022/09/15 10:16:18;;;;;;;8.25;2.25;;;13.90;99.90;;;;;;5076736;28;20040;-67
2022/09/15 10:18:44;;;;;;;6.93;1.40;;;13.90;99.90;;;;;;5075023;28;20044;-67
2022/09/15 10:21:13;;;;;;;5.57;1.15;;;14.00;99.90;;;;;;5065849;28;20130;-65
2022/09/15 10:23:39;;;;;;;5.57;1.02;;;14.10;99.90;;;;;;5063405;28;20111;-65
2022/09/15 10:26:21;;;;;;;6.22;0.98;;;14.20;99.90;;;;;;5058699;28;20047;-66
2022/09/15 10:29:12;;;;;;;3.85;0.90;;;14.20;99.90;;;;;;5058644;28;20523;-65
2022/09/15 10:31:39;;;;;;;6.35;1.10;;;14.20;99.90;;;;;;5058292;28;20413;-65
2022/09/15 10:34:24;;;;;;;6.15;1.63;;;14.30;99.90;;;;;;5058949;28;20044;-67
2022/09/15 10:36:59;;;;;;;13.20;0.90;;;14.20;99.90;;;;;;5062144;28;20060;-67
2022/09/15 10:39:37;;;;;;;2.50;0.75;;;14.20;99.90;;;;;;5054043;28;21469;-66
2022/09/15 10:42:15;;;;;;;13.52;2.10;;;14.30;99.90;;;;;;5065529;28;20044;-67
2022/09/15 10:44:51;;;;;;;6.65;1.20;;;14.00;99.90;;;;;;5055712;28;20048;-67
2022/09/15 10:47:38;;;;;;;7.90;1.10;;;14.10;99.90;;;;;;5060341;28;20055;-68
2022/09/15 10:50:23;;;;;;;4.68;1.00;;;13.90;99.90;;;;;;5057925;28;20286;-66
2022/09/15 10:53:27;;;;;;;8.77;1.05;;;14.00;99.90;;;;;;5039236;28;20094;-68
2022/09/15 10:55:55;;;;;;;5.32;0.80;;;14.10;99.90;;;;;;5058604;28;20475;-67
2022/09/15 10:58:33;;;;;;;10.75;1.15;;;14.00;99.90;;;;;;5058761;28;20163;-67
2022/09/15 11:01:28;;;;;;;5.13;1.00;;;14.20;99.90;;;;;;5058542;28;20041;-66
2022/09/15 11:04:32;;;;;;;8.60;1.35;;;14.20;99.90;;;;;;5037330;28;20095;-67
2022/09/15 11:06:57;;;;;;;10.57;1.35;;;14.30;99.90;;;;;;5060351;28;20044;-66
2022/09/15 11:09:24;;;;;;;;;;;14.30;99.90;;;;;;5055018;28;20048;-67
2022/09/15 11:12:02;;;;;;;6.88;1.15;;;14.40;99.90;;;;;;5062226;28;19917;-68
2022/09/15 11:15:00;;;;;;;5.70;1.33;;;14.40;99.90;;;;;;5058527;28;20068;-67
2022/09/15 11:17:36;;;;;;;7.57;0.90;;;14.50;99.90;;;;;;5059319;28;20055;-67
2022/09/15 11:20:17;;;;;;;7.13;1.13;;;14.60;99.90;;;;;;5061173;28;20524;-66
2022/09/15 11:22:50;;;;;;;11.68;1.50;;;14.60;99.90;;;;;;5061147;28;20043;-67
2022/09/15 11:25:25;;;;;;;6.10;1.10;;;14.50;99.90;;;;;;5061208;28;20040;-67
2022/09/15 11:27:58;;;;;;;5.68;0.90;;;14.50;99.90;;;;;;5072718;28;20044;-66
2022/09/15 11:30:31;;;;;;;4.00;1.02;;;14.60;99.90;;;;;;5061781;28;20047;-66
2022/09/15 11:33:19;;;;;;;5.07;1.20;;;14.60;99.90;;;;;;5064168;28;20702;-67
2022/09/15 11:36:03;;;;;;;5.80;1.20;;;14.70;99.90;;;;;;5065362;28;20067;-68
2022/09/15 11:38:53;;;;;;;6.95;1.10;;;14.80;99.90;;;;;;5062935;28;20795;-67
2022/09/15 11:41:32;;;;;;;4.20;0.90;;;14.80;99.90;;;;;;5071343;28;20036;-67
2022/09/15 11:44:13;;;;;;;5.47;0.98;;;14.60;99.90;;;;;;5059767;28;20138;-67
2022/09/15 11:46:58;;;;;;;3.28;1.00;;;14.50;99.90;;;;;;5066728;28;20137;-66
2022/09/15 11:49:39;;;;;;;4.13;0.93;;;14.40;99.90;;;;;;5057727;28;20507;-66
2022/09/15 11:52:28;;;;;;;8.07;1.80;;;14.40;99.90;;;;;;5067219;28;20041;-69
2022/09/15 11:55:15;;;;;;;5.05;1.15;;;14.50;99.90;;;;;;5062544;28;20090;-67
2022/09/15 11:57:53;;;;;;;4.53;1.10;;;14.50;99.90;;;;;;5060604;28;20040;-67
2022/09/15 12:00:20;;;;;;;7.32;1.05;;;14.40;99.90;;;;;;5061555;28;20078;-66
2022/09/15 12:02:50;;;;;;;8.30;1.27;;;14.30;99.90;;;;;;5065171;28;20047;-69
2022/09/15 12:05:18;;;;;;;9.50;1.60;;;14.10;99.90;;;;;;5058336;28;20055;-67
2022/09/15 12:08:09;;;;;;;4.65;1.52;;;14.00;99.90;;;;;;5064438;28;20455;-67
2022/09/15 12:10:40;;;;;;;3.88;1.33;;;13.90;99.90;;;;;;5056653;28;20056;-66
2022/09/15 12:13:13;;;;;;;4.85;1.17;;;13.90;99.90;;;;;;5064002;28;20039;-69
2022/09/15 12:15:39;;;;;;;4.30;0.90;;;13.90;99.90;;;;;;5078590;28;20515;-67
2022/09/15 12:18:18;;;;;;;;;;;13.80;99.90;;;;;;5084431;28;20029;-68
2022/09/15 12:20:53;;;;;;;5.82;1.45;;;13.80;99.90;;;;;;5065053;28;20303;-69
2022/09/15 12:23:42;;;;;;;3.97;1.00;;;13.80;99.90;;;;;;5060988;28;20078;-69
2022/09/15 12:26:20;;;;;;;7.65;1.55;;;13.80;99.90;;;;;;5068790;28;20044;-67
2022/09/15 12:28:46;;;;;;;4.88;1.10;;;13.90;99.90;;;;;;5079682;28;20097;-67
2022/09/15 12:31:14;;;;;;;;;;;14.00;99.90;;;;;;5080495;28;20036;-66
2022/09/15 12:34:04;;;;;;;4.85;1.50;;;14.10;99.90;;;;;;5075728;28;20265;-69
2022/09/15 12:36:37;;;;;;;4.75;1.60;;;14.10;99.90;;;;;;5078136;28;20040;-67
2022/09/15 12:39:25;;;;;;;2.45;1.00;;;14.10;99.90;;;;;;5064652;28;20068;-67
2022/09/15 12:41:55;;;;;;;7.97;1.40;;;14.00;99.90;;;;;;5064685;28;20037;-67
2022/09/15 12:44:33;;;;;;;8.38;2.03;;;14.00;99.90;;;;;;5069093;28;20072;-67
2022/09/15 12:47:01;;;;;;;9.55;2.25;;;13.90;99.90;;;;;;5045321;28;20423;-66
2022/09/15 12:49:35;;;;;;;7.10;1.40;;;14.00;99.90;;;;;;5058970;28;20033;-67
2022/09/15 12:52:05;;;;;;;5.05;1.40;;;14.10;99.90;;;;;;5066640;28;20047;-66
2022/09/15 12:54:32;;;;;;;4.25;1.00;;;14.20;99.90;;;;;;5058766;28;20070;-66
2022/09/15 12:57:00;;;;;;;7.30;1.35;;;14.10;99.90;;;;;;5061273;28;20105;-67
2022/09/15 12:59:27;;;;;;;3.28;1.08;;;14.00;99.90;;;;;;5071399;28;20060;-66
2022/09/15 13:01:54;;;;;;;2.38;1.08;;;14.10;99.90;;;;;;5084071;28;20499;-68
2022/09/15 13:04:26;;;;;;;9.65;1.80;;;14.20;99.90;;;;;;5079175;28;20047;-67
2022/09/15 13:07:17;;;;;;;4.05;0.88;;;14.10;99.90;;;;;;5067645;28;20171;-66
2022/09/15 13:09:46;;;;;;;11.43;1.75;;;14.20;99.90;;;;;;5065565;28;20040;-67
2022/09/15 13:12:16;;;;;;;5.05;1.52;;;14.30;99.90;;;;;;5069139;28;20051;-67
2022/09/15 13:14:47;;;;;;;7.70;1.17;;;14.30;99.90;;;;;;5059370;28;20063;-65
2022/09/15 13:17:17;;;;;;;4.43;0.60;;;14.40;99.90;;;;;;5067628;28;20048;-67